createdAt,value
2023-05-02T00:02:00.448Z,75.18
2023-05-02T00:04:28.451Z,72.58
2023-05-02T00:06:58.054Z,74.52
2023-05-02T00:09:26.044Z,74.53
2023-05-02T00:11:53.942Z,74.57
2023-05-02T00:14:21.884Z,73.98
2023-05-02T00:16:49.833Z,75.49
2023-05-02T00:19:17.772Z,75.45
2023-05-02T00:21:48.713Z,75.66
2023-05-02T00:24:18.772Z,75.87
2023-05-02T00:26:46.871Z,75.49
2023-05-02T00:29:14.776Z,74.82
2023-05-02T00:31:42.940Z,74.99
2023-05-02T00:34:11.016Z,75.61
2023-05-02T00:36:38.899Z,72.84
2023-05-02T00:39:06.832Z,73.68
2023-05-02T00:41:36.113Z,74.89
2023-05-02T00:44:04.114Z,73.26
2023-05-02T00:46:32.145Z,75.25
2023-05-02T00:49:00.123Z,77.02
2023-05-02T00:51:28.967Z,74.17
2023-05-02T00:53:57.885Z,75.83
2023-05-02T00:56:25.849Z,74.00
2023-05-02T00:58:55.561Z,72.76
2023-05-02T01:01:31.562Z,76.78
2023-05-02T01:04:09.946Z,72.91
2023-05-02T01:06:42.263Z,74.62
2023-05-02T01:09:19.953Z,76.30
2023-05-02T01:11:52.025Z,74.46
2023-05-02T01:14:22.805Z,71.20
2023-05-02T01:16:51.616Z,73.81
2023-05-02T01:19:25.632Z,69.62
2023-05-02T01:21:54.322Z,71.57
2023-05-02T01:24:27.771Z,75.48
2023-05-02T01:27:03.649Z,79.02
2023-05-02T01:29:33.750Z,78.45
2023-05-02T01:32:03.585Z,79.35
2023-05-02T01:34:32.676Z,80.47
2023-05-02T01:37:01.205Z,79.74
2023-05-02T01:39:29.649Z,78.71
2023-05-02T01:41:58.339Z,80.45
2023-05-02T01:44:27.023Z,81.75
2023-05-02T01:46:56.888Z,78.67
2023-05-02T01:49:25.842Z,80.08
2023-05-02T01:51:54.303Z,79.93
2023-05-02T01:54:24.728Z,78.45
2023-05-02T01:56:53.107Z,78.38
2023-05-02T01:59:21.771Z,79.20
2023-05-02T02:01:51.729Z,79.04
2023-05-02T02:04:21.418Z,78.64
2023-05-02T02:06:52.268Z,80.09
2023-05-02T02:09:20.851Z,81.46
2023-05-02T02:11:52.379Z,77.86
2023-05-02T02:14:22.921Z,79.58
2023-05-02T02:16:52.273Z,77.51
2023-05-02T02:19:22.292Z,79.11
2023-05-02T02:21:50.853Z,76.58
2023-05-02T02:24:20.072Z,76.92
2023-05-02T02:26:48.091Z,74.93
2023-05-02T02:29:15.968Z,76.35
2023-05-02T02:31:43.870Z,74.31
2023-05-02T02:34:11.838Z,75.46
2023-05-02T02:36:47.313Z,74.92
2023-05-02T02:39:21.488Z,76.59
2023-05-02T02:41:54.452Z,77.22
2023-05-02T02:44:28.708Z,75.50
2023-05-02T02:47:04.246Z,76.28
2023-05-02T02:49:36.964Z,74.15
2023-05-02T02:52:11.911Z,74.87
2023-05-02T02:54:43.181Z,76.33
2023-05-02T02:57:17.962Z,76.23
2023-05-02T02:59:52.947Z,74.33
2023-05-02T03:02:20.937Z,74.26
2023-05-02T03:04:50.452Z,73.35
2023-05-02T03:07:19.753Z,73.47
2023-05-02T03:09:48.660Z,74.06
2023-05-02T03:12:16.621Z,75.94
2023-05-02T03:14:44.684Z,74.59
2023-05-02T03:17:12.626Z,74.19
2023-05-02T03:19:41.047Z,73.57
2023-05-02T03:22:09.000Z,74.96
2023-05-02T03:24:38.544Z,74.20
2023-05-02T03:27:06.468Z,73.86
2023-05-02T03:29:34.385Z,73.99
2023-05-02T03:32:02.498Z,74.10
2023-05-02T03:34:30.428Z,73.57
2023-05-02T03:36:58.413Z,74.55
2023-05-02T03:39:26.500Z,73.60
2023-05-02T03:41:55.795Z,73.74
2023-05-02T03:44:23.772Z,73.71
2023-05-02T03:46:51.818Z,73.73
2023-05-02T03:49:19.973Z,73.33
2023-05-02T03:51:48.055Z,73.22
2023-05-02T03:54:15.947Z,72.34
2023-05-02T03:56:44.592Z,72.39
2023-05-02T03:59:14.319Z,72.74
2023-05-02T04:01:42.331Z,73.19
2023-05-02T04:04:11.466Z,73.40
2023-05-02T04:06:39.823Z,72.35
2023-05-02T04:09:07.780Z,71.51
2023-05-02T04:11:35.686Z,71.71
2023-05-02T04:14:04.470Z,72.40
2023-05-02T04:16:33.758Z,72.21
2023-05-02T04:19:01.754Z,73.07
2023-05-02T04:21:29.664Z,72.45
2023-05-02T04:23:57.613Z,71.25
2023-05-02T04:26:25.781Z,71.13
2023-05-02T04:28:53.672Z,71.63
2023-05-02T04:31:21.665Z,71.62
2023-05-02T04:33:50.958Z,71.75
2023-05-02T04:36:19.145Z,72.09
2023-05-02T04:38:47.233Z,72.25
2023-05-02T04:41:16.253Z,72.07
2023-05-02T04:43:44.253Z,71.73
2023-05-02T04:46:12.363Z,70.55
2023-05-02T04:48:42.329Z,69.31
2023-05-02T04:51:11.895Z,70.09
2023-05-02T04:53:39.907Z,67.32
2023-05-02T04:56:08.703Z,68.59
2023-05-02T04:58:36.623Z,69.40
2023-05-02T05:01:04.552Z,68.28
2023-05-02T05:03:33.527Z,69.73
2023-05-02T05:06:02.444Z,67.40
2023-05-02T05:08:31.984Z,68.13
2023-05-02T05:11:00.112Z,68.22
2023-05-02T05:13:28.471Z,66.60
2023-05-02T05:15:56.430Z,67.78
2023-05-02T05:18:24.464Z,68.45
2023-05-02T05:20:52.354Z,67.36
2023-05-02T05:23:20.266Z,67.46
2023-05-02T05:25:49.528Z,67.67
2023-05-02T05:28:18.634Z,67.11
2023-05-02T05:30:46.721Z,68.27
2023-05-02T05:33:14.831Z,67.20
2023-05-02T05:35:42.802Z,65.47
2023-05-02T05:38:10.699Z,66.18
2023-05-02T05:40:38.594Z,68.71
2023-05-02T05:43:07.945Z,66.63
2023-05-02T05:45:35.847Z,67.73
2023-05-02T05:48:03.796Z,65.99
2023-05-02T05:50:31.744Z,67.30
2023-05-02T05:53:00.021Z,67.17
2023-05-02T05:55:28.886Z,64.98
2023-05-02T05:57:56.826Z,64.99
2023-05-02T06:00:26.427Z,65.67
2023-05-02T06:02:54.490Z,64.77
2023-05-02T06:05:22.424Z,65.01
2023-05-02T06:07:50.313Z,66.70
2023-05-02T06:10:18.356Z,64.87
2023-05-02T06:12:47.230Z,65.18
2023-05-02T06:15:16.622Z,64.79
2023-05-02T06:17:46.059Z,65.59
2023-05-02T06:20:14.951Z,65.14
2023-05-02T06:22:43.586Z,63.61
2023-05-02T06:25:11.517Z,64.72
2023-05-02T06:27:39.460Z,63.43
2023-05-02T06:30:08.824Z,65.35
2023-05-02T06:32:36.776Z,65.52
2023-05-02T06:35:06.917Z,64.38
2023-05-02T06:37:35.942Z,59.65
2023-05-02T06:40:04.589Z,60.49
2023-05-02T06:42:32.580Z,63.99
2023-05-02T06:45:00.765Z,63.33
2023-05-02T06:47:28.966Z,61.99
2023-05-02T06:49:57.488Z,63.10
2023-05-02T06:52:26.869Z,60.52
2023-05-02T06:54:54.862Z,63.24
2023-05-02T06:57:22.815Z,59.30
2023-05-02T06:59:50.716Z,59.76
2023-05-02T07:02:18.894Z,59.31
2023-05-02T07:04:47.086Z,59.41
2023-05-02T07:07:18.708Z,59.31
2023-05-02T07:09:48.039Z,62.21
2023-05-02T07:12:15.923Z,62.24
2023-05-02T07:14:43.871Z,56.68
2023-05-02T07:17:11.836Z,55.91
2023-05-02T07:19:40.035Z,59.07
2023-05-02T07:22:08.167Z,60.09
2023-05-02T07:24:36.736Z,59.76
2023-05-02T07:27:06.277Z,58.66
2023-05-02T07:29:34.209Z,59.45
2023-05-02T07:32:02.161Z,59.39
2023-05-02T07:34:30.172Z,58.53
2023-05-02T07:36:58.093Z,58.02
2023-05-02T07:39:26.623Z,58.49
2023-05-02T07:41:54.599Z,60.38
2023-05-02T07:44:24.235Z,59.81
2023-05-02T07:46:52.141Z,58.71
2023-05-02T07:49:20.497Z,58.39
2023-05-02T07:51:48.383Z,56.50
2023-05-02T07:54:16.940Z,57.55
2023-05-02T07:56:45.106Z,55.64
2023-05-02T07:59:12.994Z,56.37
2023-05-02T08:01:42.685Z,54.93
2023-05-02T08:04:11.722Z,56.36
2023-05-02T08:06:39.876Z,57.65
2023-05-02T08:09:07.803Z,57.20
2023-05-02T08:11:35.769Z,57.83
2023-05-02T08:14:03.642Z,56.90
2023-05-02T08:16:31.563Z,58.60
2023-05-02T08:19:00.924Z,57.93
2023-05-02T08:21:29.371Z,57.16
2023-05-02T08:23:59.498Z,57.48
2023-05-02T08:26:28.050Z,58.69
2023-05-02T08:28:56.065Z,56.30
2023-05-02T08:31:24.118Z,58.64
2023-05-02T08:33:52.121Z,58.04
2023-05-02T08:36:21.457Z,55.94
2023-05-02T08:38:49.644Z,56.72
2023-05-02T08:41:19.330Z,55.66
2023-05-02T08:43:47.998Z,58.05
2023-05-02T08:46:17.647Z,56.77
2023-05-02T08:48:48.210Z,55.35
2023-05-02T08:53:53.786Z,56.58
2023-05-02T08:56:22.246Z,58.38
2023-05-02T08:58:50.372Z,58.31
2023-05-02T09:01:21.441Z,59.12
2023-05-02T09:03:49.722Z,57.86
2023-05-02T09:06:19.121Z,58.40
2023-05-02T09:08:48.810Z,56.90
2023-05-02T09:11:18.527Z,57.73
2023-05-02T09:13:47.039Z,56.97
2023-05-02T09:16:17.715Z,57.80
2023-05-02T09:18:47.519Z,55.92
2023-05-02T09:21:19.705Z,55.93
2023-05-02T09:23:49.916Z,55.33
2023-05-02T09:26:21.246Z,57.35
2023-05-02T09:28:50.160Z,56.01
2023-05-02T09:31:31.259Z,57.33
2023-05-02T09:34:10.742Z,56.94
2023-05-02T09:36:41.416Z,56.78
2023-05-02T09:39:11.517Z,54.83
2023-05-02T09:41:45.019Z,56.97
2023-05-02T09:44:14.099Z,54.79
2023-05-02T09:46:42.979Z,55.22
2023-05-02T09:49:11.157Z,52.89
2023-05-02T09:51:39.317Z,53.07
2023-05-02T09:54:07.218Z,53.31
2023-05-02T09:56:56.435Z,55.08
2023-05-02T09:59:25.020Z,51.58
2023-05-02T10:01:57.499Z,52.58
2023-05-02T10:04:26.573Z,54.12
2023-05-02T10:06:55.671Z,51.48
2023-05-02T10:09:23.995Z,54.26
2023-05-02T10:11:55.356Z,52.21
2023-05-02T10:14:25.135Z,54.92
2023-05-02T10:16:57.093Z,54.16
2023-05-02T10:19:28.676Z,53.71
2023-05-02T10:21:56.987Z,55.05
2023-05-02T10:24:25.473Z,55.19
2023-05-02T10:26:55.054Z,55.26
2023-05-02T10:29:23.055Z,54.46
2023-05-02T10:31:51.615Z,54.36
2023-05-02T10:34:20.084Z,55.30
2023-05-02T10:36:48.100Z,53.54
2023-05-02T10:39:16.479Z,54.62
2023-05-02T10:41:44.855Z,54.93
2023-05-02T10:44:14.164Z,53.30
2023-05-02T10:46:43.115Z,53.58
2023-05-02T10:49:12.161Z,51.84
2023-05-02T10:51:41.721Z,54.27
2023-05-02T10:54:25.353Z,51.25
2023-05-02T10:57:04.318Z,50.38
2023-05-02T10:59:36.505Z,50.46
2023-05-02T11:02:07.092Z,50.31
2023-05-02T11:05:01.443Z,49.02
2023-05-02T11:07:30.694Z,52.78
2023-05-02T11:10:31.502Z,47.97
2023-05-02T11:13:01.265Z,51.24
2023-05-02T11:15:58.681Z,51.47
2023-05-02T11:18:27.028Z,48.83
2023-05-02T11:21:28.950Z,50.18
2023-05-02T11:24:35.809Z,50.37
2023-05-02T11:27:38.585Z,53.33
2023-05-02T11:30:09.214Z,54.64
2023-05-02T11:33:17.604Z,54.14
2023-05-02T11:35:48.219Z,55.05
2023-05-02T11:38:18.329Z,54.00
2023-05-02T11:40:59.575Z,52.16
2023-05-02T11:43:31.915Z,51.55
2023-05-02T11:46:02.219Z,52.80
2023-05-02T11:48:31.962Z,52.29
2023-05-02T11:51:05.436Z,50.34
2023-05-02T11:54:14.020Z,49.15
2023-05-02T11:56:42.641Z,50.07
2023-05-02T11:59:11.287Z,51.48
2023-05-02T12:01:49.604Z,52.32
2023-05-02T12:04:22.017Z,52.48
2023-05-02T12:06:57.973Z,50.79
2023-05-02T12:09:26.055Z,49.45
2023-05-02T12:11:54.855Z,49.48
2023-05-02T12:14:29.831Z,49.78
2023-05-02T12:16:59.209Z,49.69
2023-05-02T12:19:27.321Z,51.15
2023-05-02T12:21:55.453Z,51.78
2023-05-02T12:24:24.844Z,50.72
2023-05-02T12:27:10.644Z,50.88
2023-05-02T12:29:39.947Z,51.40
2023-05-02T12:32:08.397Z,49.99
2023-05-02T12:34:37.480Z,52.34
2023-05-02T12:37:06.289Z,49.91
2023-05-02T12:39:39.749Z,52.62
2023-05-02T12:42:11.955Z,50.22
2023-05-02T12:44:40.878Z,52.65
2023-05-02T12:47:09.219Z,52.29
2023-05-02T12:49:50.150Z,50.40
2023-05-02T12:52:18.117Z,50.84
2023-05-02T12:54:47.474Z,52.13
2023-05-02T12:57:25.971Z,49.11
2023-05-02T12:59:55.273Z,51.57
2023-05-02T13:02:23.720Z,51.55
2023-05-02T13:04:52.252Z,52.78
2023-05-02T13:07:20.160Z,50.84
2023-05-02T13:09:49.447Z,53.27
2023-05-02T13:12:18.157Z,53.10
2023-05-02T13:14:46.272Z,51.92
2023-05-02T13:17:14.543Z,51.25
2023-05-02T13:19:47.566Z,51.14
2023-05-02T13:22:22.029Z,52.96
2023-05-02T13:24:51.521Z,52.89
2023-05-02T13:27:19.710Z,52.17
2023-05-02T13:29:47.622Z,51.36
2023-05-02T13:32:15.632Z,51.88
2023-05-02T13:34:43.805Z,52.01
2023-05-02T13:37:11.935Z,51.47
2023-05-02T13:39:39.949Z,53.01
2023-05-02T13:42:09.262Z,53.11
2023-05-02T13:44:37.261Z,50.30
2023-05-02T13:47:05.204Z,46.98
2023-05-02T13:49:33.142Z,46.72
2023-05-02T13:52:01.096Z,48.55
2023-05-02T13:54:29.162Z,52.39
2023-05-02T13:56:57.095Z,50.33
2023-05-02T13:59:26.428Z,52.60
2023-05-02T14:01:54.701Z,50.72
2023-05-02T14:04:23.666Z,53.13
2023-05-02T14:06:51.694Z,49.67
2023-05-02T14:09:20.625Z,54.93
2023-05-02T14:11:48.819Z,53.55
2023-05-02T14:14:16.760Z,51.95
2023-05-02T14:16:47.603Z,51.59
2023-05-02T14:19:16.717Z,53.08
2023-05-02T14:21:44.656Z,51.07
2023-05-02T14:24:14.926Z,52.13
2023-05-02T14:26:42.820Z,50.13
2023-05-02T14:29:10.828Z,52.34
2023-05-02T14:31:38.787Z,52.76
2023-05-02T14:34:09.023Z,51.15
2023-05-02T14:36:37.079Z,52.21
2023-05-02T14:39:05.204Z,49.64
2023-05-02T14:41:33.098Z,49.01
2023-05-02T14:44:03.497Z,47.42
2023-05-02T14:46:34.393Z,45.41
2023-05-02T14:49:02.485Z,44.87
2023-05-02T14:51:32.385Z,47.52
2023-05-02T14:54:00.390Z,47.48
2023-05-02T14:56:28.276Z,47.53
2023-05-02T14:58:56.211Z,45.18
2023-05-02T15:01:24.225Z,50.45
2023-05-02T15:04:06.032Z,48.69
2023-05-02T15:06:37.068Z,49.06
2023-05-02T15:09:05.660Z,51.48
2023-05-02T15:11:33.568Z,51.84
2023-05-02T15:14:01.469Z,51.82
2023-05-02T15:16:30.450Z,49.59
2023-05-02T15:18:58.462Z,51.91
2023-05-02T15:21:26.464Z,51.99
2023-05-02T15:23:56.149Z,50.96
2023-05-02T15:26:24.357Z,50.16
2023-05-02T15:28:52.318Z,50.41
2023-05-02T15:31:20.240Z,51.98
2023-05-02T15:33:48.173Z,49.51
2023-05-02T15:36:16.068Z,50.44
2023-05-02T15:38:44.026Z,49.29
2023-05-02T15:41:13.282Z,45.87
2023-05-02T15:43:41.196Z,46.47
2023-05-02T15:46:09.123Z,45.12
2023-05-02T15:48:37.082Z,45.22
2023-05-02T15:51:06.367Z,44.35
2023-05-02T15:53:35.128Z,42.28
2023-05-02T15:56:03.060Z,42.87
2023-05-02T15:58:32.477Z,44.48
2023-05-02T16:01:00.431Z,40.87
2023-05-02T16:03:28.473Z,46.70
2023-05-02T16:05:58.412Z,44.88
2023-05-02T16:08:26.421Z,45.30
2023-05-02T16:10:54.367Z,46.71
2023-05-02T16:13:22.318Z,45.08
2023-05-02T16:15:52.162Z,45.64
2023-05-02T16:18:20.191Z,47.38
2023-05-02T16:20:49.794Z,45.50
2023-05-02T16:23:17.920Z,44.96
2023-05-02T16:25:46.034Z,44.30
2023-05-02T16:28:13.918Z,40.44
2023-05-02T16:30:41.796Z,41.54
2023-05-02T16:33:11.213Z,39.31
2023-05-02T16:35:39.216Z,42.11
2023-05-02T16:38:07.180Z,42.84
2023-05-02T16:40:35.157Z,43.23
2023-05-02T16:43:03.058Z,44.80
2023-05-02T16:45:30.995Z,42.25
2023-05-02T16:47:58.999Z,47.10
2023-05-02T16:50:28.284Z,44.67
2023-05-02T16:52:56.177Z,47.21
2023-05-02T16:55:24.092Z,44.71
2023-05-02T16:57:52.050Z,46.05
2023-05-02T17:00:20.741Z,43.84
2023-05-02T17:02:48.837Z,44.54
2023-05-02T17:05:16.976Z,46.09
2023-05-02T17:07:46.247Z,47.21
2023-05-02T17:10:14.405Z,49.12
2023-05-02T17:12:42.755Z,46.17
2023-05-02T17:15:11.488Z,46.33
2023-05-02T17:17:40.068Z,49.99
2023-05-02T17:20:08.661Z,50.93
2023-05-02T17:22:38.133Z,51.05
2023-05-02T17:25:07.974Z,49.77
2023-05-02T17:27:37.674Z,48.78
2023-05-02T17:30:08.560Z,46.91
2023-05-02T17:32:37.703Z,45.81
2023-05-02T17:35:06.640Z,43.60
2023-05-02T17:37:34.587Z,43.96
2023-05-02T17:40:04.027Z,44.53
2023-05-02T17:42:33.503Z,48.76
2023-05-02T17:45:01.414Z,47.65
2023-05-02T17:47:29.320Z,50.80
2023-05-02T17:49:57.609Z,47.67
2023-05-02T17:52:25.660Z,47.35
2023-05-02T17:54:53.581Z,50.62
2023-05-02T17:57:21.467Z,49.74
2023-05-02T17:59:53.771Z,51.14
2023-05-02T18:02:22.721Z,50.64
2023-05-02T18:04:50.686Z,52.56
2023-05-02T18:07:23.695Z,53.56
2023-05-02T18:09:52.119Z,50.20
2023-05-02T18:12:20.284Z,52.23
2023-05-02T18:14:49.099Z,53.42
2023-05-02T18:17:20.459Z,50.96
2023-05-02T18:19:50.105Z,52.06
2023-05-02T18:22:21.312Z,51.83
2023-05-02T18:24:49.605Z,52.90
2023-05-02T18:27:18.063Z,53.99
2023-05-02T18:29:46.092Z,54.12
2023-05-02T18:32:14.511Z,53.68
2023-05-02T18:34:43.767Z,56.56
2023-05-02T18:37:11.711Z,55.48
2023-05-02T18:39:39.603Z,54.50
2023-05-02T18:42:08.323Z,53.58
2023-05-02T18:44:36.294Z,54.50
2023-05-02T18:47:04.177Z,54.63
2023-05-02T18:49:32.249Z,56.20
2023-05-02T18:52:03.253Z,55.85
2023-05-02T18:54:33.503Z,54.85
2023-05-02T18:57:02.132Z,56.17
2023-05-02T18:59:30.182Z,55.92
2023-05-02T19:01:58.251Z,56.66
2023-05-02T19:04:26.446Z,57.02
2023-05-02T19:06:54.391Z,56.89
2023-05-02T19:09:24.078Z,57.49
2023-05-02T19:11:54.012Z,57.67
2023-05-02T19:14:21.967Z,57.32
2023-05-02T19:16:49.876Z,57.62
2023-05-02T19:19:18.431Z,57.37
2023-05-02T19:21:48.087Z,57.42
2023-05-02T19:24:16.842Z,57.76
2023-05-02T19:26:46.178Z,58.48
2023-05-02T19:29:14.135Z,58.48
2023-05-02T19:31:42.634Z,58.23
2023-05-02T19:34:10.588Z,58.67
2023-05-02T19:36:38.698Z,59.76
2023-05-02T19:39:06.661Z,59.72
2023-05-02T19:41:34.578Z,59.36
2023-05-02T19:44:03.954Z,60.40
2023-05-02T19:46:32.294Z,59.69
2023-05-02T19:49:00.278Z,60.17
2023-05-02T19:51:29.619Z,60.82
2023-05-02T19:53:58.931Z,59.86
2023-05-02T19:56:27.499Z,60.27
2023-05-02T19:58:56.788Z,60.55
2023-05-02T20:01:26.460Z,60.28
2023-05-02T20:03:54.834Z,61.05
2023-05-02T20:06:22.821Z,60.82
2023-05-02T20:08:52.497Z,61.01
2023-05-02T20:11:20.409Z,61.17
2023-05-02T20:13:48.376Z,61.15
2023-05-02T20:16:16.421Z,60.66
2023-05-02T20:18:45.775Z,61.18
2023-05-02T20:21:13.683Z,62.34
2023-05-02T20:23:43.455Z,63.01
2023-05-02T20:26:11.607Z,61.91
2023-05-02T20:28:39.484Z,63.20
2023-05-02T20:31:07.405Z,64.04
2023-05-02T20:33:44.546Z,62.79
2023-05-02T20:36:15.803Z,63.59
2023-05-02T20:38:44.679Z,63.42
2023-05-02T20:41:13.955Z,62.50
2023-05-02T20:43:44.954Z,62.15
2023-05-02T20:46:16.211Z,62.01
2023-05-02T20:48:44.315Z,62.97
2023-05-02T20:51:12.252Z,62.91
2023-05-02T20:53:41.589Z,60.78
2023-05-02T20:56:09.456Z,61.57
2023-05-02T20:58:37.436Z,61.92
2023-05-02T21:01:05.782Z,62.76
2023-05-02T21:03:36.631Z,61.22
2023-05-02T21:06:05.013Z,61.24
2023-05-02T21:08:33.083Z,60.63
2023-05-02T21:11:02.375Z,61.26
2023-05-02T21:13:30.300Z,62.06
2023-05-02T21:15:58.246Z,61.26
2023-05-02T21:18:26.196Z,60.92
2023-05-02T21:20:54.083Z,62.09
2023-05-02T21:23:21.975Z,62.41
2023-05-02T21:25:49.884Z,62.80
2023-05-02T21:28:19.150Z,65.92
2023-05-02T21:30:47.054Z,67.02
2023-05-02T21:33:17.686Z,65.87
2023-05-02T21:35:46.404Z,66.04
2023-05-02T21:38:14.330Z,64.03
2023-05-02T21:40:42.448Z,65.27
2023-05-02T21:43:10.333Z,63.58
2023-05-02T21:45:46.460Z,63.03
2023-05-02T21:48:14.638Z,63.32
2023-05-02T21:50:43.160Z,62.20
2023-05-02T21:53:11.405Z,62.11
2023-05-02T21:55:39.947Z,61.48
2023-05-02T21:58:08.981Z,62.44
2023-05-02T22:00:38.381Z,64.56
2023-05-02T22:03:09.919Z,66.77
2023-05-02T22:05:39.961Z,67.41
2023-05-02T22:08:08.899Z,66.84
2023-05-02T22:10:38.619Z,68.17
2023-05-02T22:13:07.258Z,67.94
2023-05-02T22:15:35.210Z,67.66
2023-05-02T22:18:04.911Z,66.15
2023-05-02T22:20:34.268Z,63.80
2023-05-02T22:23:02.294Z,63.07
2023-05-02T22:25:30.197Z,66.59
2023-05-02T22:28:01.045Z,65.21
2023-05-02T22:30:28.960Z,66.40
2023-05-02T22:32:56.906Z,64.14
2023-05-02T22:35:24.857Z,63.84
2023-05-02T22:37:54.153Z,62.73
2023-05-02T22:40:22.075Z,62.88
2023-05-02T22:42:49.983Z,62.27
2023-05-02T22:45:18.180Z,64.64
2023-05-02T22:47:46.133Z,64.74
2023-05-02T22:50:14.363Z,63.38
2023-05-02T22:52:43.065Z,62.33
2023-05-02T22:55:12.857Z,61.89
2023-05-02T22:57:40.969Z,62.38
2023-05-02T23:00:10.711Z,62.51
2023-05-02T23:02:38.882Z,63.39
2023-05-02T23:05:07.672Z,64.13
2023-05-02T23:07:35.660Z,64.18
2023-05-02T23:10:03.866Z,62.62
2023-05-02T23:12:33.370Z,65.88
2023-05-02T23:15:01.405Z,67.93
2023-05-02T23:17:29.378Z,65.00
2023-05-02T23:19:58.183Z,63.11
2023-05-02T23:22:26.177Z,63.15
2023-05-02T23:24:54.101Z,63.59
2023-05-02T23:27:22.029Z,66.37
2023-05-02T23:29:51.611Z,69.06
2023-05-02T23:32:20.212Z,67.27
2023-05-02T23:34:49.441Z,68.82
2023-05-02T23:37:17.365Z,69.78
2023-05-02T23:39:45.271Z,68.81
2023-05-02T23:42:13.199Z,67.12
2023-05-02T23:44:41.099Z,69.40
2023-05-02T23:47:10.817Z,69.63
2023-05-02T23:49:38.735Z,68.67
2023-05-02T23:52:06.713Z,66.60
2023-05-02T23:54:35.570Z,68.93
2023-05-02T23:57:03.532Z,67.97
2023-05-02T23:59:31.399Z,69.83
